Big Pine Key, FL (33043)

10:15 PM EDT on September 17, 2014 (GMT -0400)
Breezeswept Estates - Bird Lake - Ramrod | Change Station
CLOSE
Current Station
Personal Weather Station
Location: Ramrod Key, FL
Elevation: 25 ft
Nearby Weather Stations

Elev 25 ft 24.65 °N, 81.41 °W | Updated 4 seconds ago

Mostly Cloudy
Mostly Cloudy
83.3 °F
Feels Like 91 °F
N
1.9
Wind Variable Wind from NNW
Gusts 3.8 mph

Today
High -- | Low -- °F
--% Chance of Precip.
Yesterday
High -- | Low -- °F
Precip. -- in
7:12 AM 7:27 PM
Waning Crescent, 31% visible
Pressure 29.96 in
Visibility 10.0 miles
Clouds Few 2500 ft
Scattered Clouds 12000 ft
Overcast 25000 ft
Heat Index 91 °F
Dew Point 75 °F
Humidity 76%
Rainfall 0.00 in
Snow Depth Not available.
UV 0 out of 12
Pollen 4.00 out of 12
Air Quality Not available.
Flu Activity Not available.
METAR KNQX 180153Z 33008KT 10SM FEW025 SCT120 OVC250 28/24 A2996 RMK AO2 SLP143 T02780239 $

More Conditions Fewer Conditions

Pressure 29.96 in
Visibility 10.0 miles
Clouds Few 2500 ft
Scattered Clouds 12000 ft
Overcast 25000 ft
Heat Index 91 °F
Dew Point 75 °F
Humidity 76%
Rainfall 0.00 in
Snow Depth Not available.
UV 0 out of 12
Pollen 4.00 out of 12
Air Quality Not available.
Flu Activity Not available.
METAR KNQX 180153Z 33008KT 10SM FEW025 SCT120 OVC250 28/24 A2996 RMK AO2 SLP143 T02780239 $

More Conditions Fewer Conditions

Nowcast | as of 9:10 PM EDT on September 17, 2014

Patches of rain are moving across the Florida Keys and surrounding waters. Through 11 PM...some island locations may see up to one tenth of an inch of rain.

×

10-Day Weather Forecast

Almanac

Astronomy

Sep. 17, 2014 Rise Set
Actual Time 7:12 AM EDT 7:27 PM EDT
Civil Twilight 6:49 AM EDT 7:49 PM EDT
Nautical Twilight 6:22 AM EDT 8:16 PM EDT
Astronomical Twilight 5:56 AM EDT 8:43 PM EDT
Moon 1:37 AM EDT (9/17) 3:10 PM EDT (9/17)
Length of Visible Light 13h 00m
Length of Day
12h 14m
Tomorrow will be 1m 25s shorter.
Waning Crescent, 31% of the Moon is Illuminated
Today
Waning Crescent
Sep 24
New
Oct 1
First Quarter
Oct 8
Full
Oct 15
Last Quarter

Today's Extremes

State Highs State Lows

Community

WunderPhotos

Upload Photos

1,754,266 photos uploaded!

Nearby

Snow Depth

Station Depth Elevation
No new snow has been reported.

Earthquake Activity

City Distance Mag. Time & Date
No recent earthquake activity has been reported nearby.
Minimum magnitude displayed is 2.5.

Coastal Water Temperatures

Place Temperature
Key West, FL 86.0 °F
Vaca Key, FL 88.0 °F

Nearby Weather Stations